createdAt,value
2019-01-21T00:00:12.727Z,6.80
2019-01-21T00:01:12.795Z,6.50
2019-01-21T00:02:12.842Z,7.00
2019-01-21T00:03:14.632Z,6.50
2019-01-21T00:04:12.926Z,7.70
2019-01-21T00:05:13.001Z,7.10
2019-01-21T00:06:13.075Z,6.60
2019-01-21T00:07:13.099Z,7.00
2019-01-21T00:08:13.122Z,7.10
2019-01-21T00:09:13.179Z,7.20
2019-01-21T00:10:13.223Z,6.90
2019-01-21T00:11:13.276Z,7.10
2019-01-21T00:12:13.328Z,7.40
2019-01-21T00:13:13.382Z,7.80
2019-01-21T00:14:13.450Z,7.90
2019-01-21T00:15:13.518Z,8.40
2019-01-21T00:16:13.523Z,8.20
2019-01-21T00:17:13.576Z,8.00
2019-01-21T00:18:13.608Z,7.60
2019-01-21T00:19:13.648Z,7.90
2019-01-21T00:20:13.721Z,8.30
2019-01-21T00:21:13.772Z,8.20
2019-01-21T00:22:13.807Z,9.20
2019-01-21T00:23:13.871Z,8.60
2019-01-21T00:24:13.908Z,9.10
2019-01-21T00:25:13.958Z,10.30
2019-01-21T00:26:13.987Z,10.30
2019-01-21T00:27:14.041Z,9.90
2019-01-21T00:28:14.108Z,10.50
2019-01-21T00:29:14.148Z,11.00
2019-01-21T00:30:14.182Z,10.70
2019-01-21T00:31:14.235Z,11.10
2019-01-21T00:32:14.296Z,11.00
2019-01-21T00:33:14.325Z,11.30
2019-01-21T00:34:14.397Z,10.90
2019-01-21T00:35:14.433Z,10.90
2019-01-21T00:36:14.532Z,11.30
2019-01-21T00:37:14.526Z,11.10
2019-01-21T00:38:14.604Z,11.20
2019-01-21T00:39:14.642Z,11.50
2019-01-21T00:40:14.664Z,11.50
2019-01-21T00:41:14.741Z,12.30
2019-01-21T00:42:14.778Z,12.40
2019-01-21T00:43:14.814Z,12.90
2019-01-21T00:44:14.878Z,12.90
2019-01-21T00:45:14.930Z,13.60
2019-01-21T00:46:14.984Z,14.20
2019-01-21T00:47:15.006Z,13.90
2019-01-21T00:48:15.109Z,14.60
2019-01-21T00:49:15.122Z,14.40
2019-01-21T00:50:15.153Z,14.70
2019-01-21T00:51:15.202Z,14.60
2019-01-21T00:52:15.261Z,14.20
2019-01-21T00:53:15.328Z,13.80
2019-01-21T00:54:15.367Z,14.50
2019-01-21T00:55:15.396Z,14.60
2019-01-21T00:56:15.443Z,14.80
2019-01-21T00:57:15.505Z,13.80
2019-01-21T00:58:15.563Z,14.70
2019-01-21T00:59:15.600Z,13.80
2019-01-21T01:00:15.663Z,14.30
2019-01-21T01:01:15.719Z,14.00
2019-01-21T01:02:15.761Z,14.10
2019-01-21T01:03:15.784Z,13.80
2019-01-21T01:04:15.866Z,14.00
2019-01-21T01:05:15.864Z,13.80
2019-01-21T01:06:15.944Z,14.10
2019-01-21T01:07:15.966Z,14.10
2019-01-21T01:08:16.020Z,14.10
2019-01-21T01:09:16.107Z,14.80
2019-01-21T01:10:16.166Z,14.80
2019-01-21T01:11:16.188Z,15.90
2019-01-21T01:12:16.260Z,16.50
2019-01-21T01:13:16.272Z,15.80
2019-01-21T01:14:16.318Z,15.90
2019-01-21T01:15:16.415Z,16.20
2019-01-21T01:16:16.415Z,16.20
2019-01-21T01:17:16.471Z,15.90
2019-01-21T01:18:16.498Z,16.30
2019-01-21T01:19:16.547Z,15.60
2019-01-21T01:20:16.627Z,15.00
2019-01-21T01:21:16.655Z,15.20
2019-01-21T01:22:16.697Z,16.60
2019-01-21T01:23:16.762Z,15.30
2019-01-21T01:24:16.816Z,16.20
2019-01-21T01:25:16.849Z,15.90
2019-01-21T01:26:16.895Z,15.90
2019-01-21T01:27:16.927Z,15.80
2019-01-21T01:28:16.978Z,18.10
2019-01-21T01:29:17.037Z,17.50
2019-01-21T01:30:17.103Z,16.10
2019-01-21T01:31:17.131Z,17.50
2019-01-21T01:32:17.194Z,17.40
2019-01-21T01:33:17.277Z,18.50
2019-01-21T01:34:17.335Z,17.40
2019-01-21T01:35:17.323Z,18.20
2019-01-21T01:36:17.375Z,18.30
2019-01-21T01:37:17.458Z,18.00
2019-01-21T01:38:17.491Z,19.50
2019-01-21T01:39:17.532Z,19.10
2019-01-21T01:40:17.589Z,19.00
2019-01-21T01:41:17.634Z,18.60
2019-01-21T01:42:17.675Z,18.50
2019-01-21T01:43:17.729Z,19.40
2019-01-21T01:44:17.764Z,18.80
2019-01-21T01:45:17.818Z,17.40
2019-01-21T01:46:17.857Z,18.10
2019-01-21T01:47:17.918Z,17.60
2019-01-21T01:48:17.976Z,16.80
2019-01-21T01:49:18.010Z,16.00
2019-01-21T01:50:18.073Z,16.70
2019-01-21T01:51:18.112Z,15.70
2019-01-21T01:52:18.160Z,15.10
2019-01-21T01:53:18.207Z,15.70
2019-01-21T01:54:18.265Z,15.00
2019-01-21T01:55:18.297Z,14.90
2019-01-21T01:56:18.342Z,13.20
2019-01-21T01:57:18.399Z,13.80
2019-01-21T01:58:18.442Z,13.60
2019-01-21T01:59:18.477Z,12.90
2019-01-21T02:00:18.538Z,13.70
2019-01-21T02:01:18.600Z,13.30
2019-01-21T02:02:18.633Z,13.50
2019-01-21T02:03:18.688Z,13.60
2019-01-21T02:04:18.735Z,13.60
2019-01-21T02:05:18.820Z,13.70
2019-01-21T02:06:18.857Z,13.00
2019-01-21T02:07:18.888Z,13.60
2019-01-21T02:08:18.903Z,12.80
2019-01-21T02:09:18.955Z,11.90
2019-01-21T02:10:19.024Z,12.50
2019-01-21T02:11:19.072Z,10.90
2019-01-21T02:12:19.117Z,9.90
2019-01-21T02:13:19.169Z,9.20
2019-01-21T02:14:19.186Z,9.10
2019-01-21T02:15:19.276Z,9.20
2019-01-21T02:16:19.345Z,8.70
2019-01-21T02:17:19.356Z,9.50
2019-01-21T02:18:19.411Z,9.30
2019-01-21T02:19:19.464Z,9.00
2019-01-21T02:20:19.518Z,9.00
2019-01-21T02:21:19.557Z,9.90
2019-01-21T02:22:19.610Z,9.40
2019-01-21T02:23:19.662Z,9.40
2019-01-21T02:24:19.699Z,10.30
2019-01-21T02:25:19.722Z,10.50
2019-01-21T02:26:19.780Z,11.00
2019-01-21T02:27:19.889Z,9.90
2019-01-21T02:28:19.895Z,10.00
2019-01-21T02:29:19.939Z,9.40
2019-01-21T02:30:20.005Z,9.80
2019-01-21T02:31:20.059Z,9.50
2019-01-21T02:32:20.104Z,9.40
2019-01-21T02:33:20.145Z,10.20
2019-01-21T02:34:20.169Z,10.40
2019-01-21T02:35:20.220Z,10.10
2019-01-21T02:36:20.270Z,10.20
2019-01-21T02:37:20.338Z,10.30
2019-01-21T02:38:20.346Z,9.70
2019-01-21T02:39:20.412Z,10.30
2019-01-21T02:40:20.468Z,10.30
2019-01-21T02:41:20.499Z,10.30
2019-01-21T02:42:20.549Z,10.00
2019-01-21T02:43:20.615Z,10.10
2019-01-21T02:44:20.643Z,11.20
2019-01-21T02:45:20.763Z,10.60
2019-01-21T02:46:20.756Z,10.30
2019-01-21T02:47:20.786Z,10.20
2019-01-21T02:48:20.852Z,10.90
2019-01-21T02:49:20.877Z,10.80
2019-01-21T02:50:20.947Z,10.30
2019-01-21T02:51:20.986Z,10.20
2019-01-21T02:52:21.057Z,10.50
2019-01-21T02:53:21.117Z,10.80
2019-01-21T02:54:21.150Z,10.20
2019-01-21T02:55:21.186Z,10.10
2019-01-21T02:56:21.240Z,10.70
2019-01-21T02:57:21.290Z,10.60
2019-01-21T02:58:21.317Z,11.20
2019-01-21T02:59:21.380Z,11.60
2019-01-21T03:00:21.432Z,10.30
2019-01-21T03:01:21.464Z,10.50
2019-01-21T03:02:21.528Z,10.50
2019-01-21T03:03:21.582Z,9.90
2019-01-21T03:04:21.615Z,10.40
2019-01-21T03:05:21.682Z,10.90
2019-01-21T03:06:21.730Z,10.30
2019-01-21T03:07:21.772Z,10.70
2019-01-21T03:08:21.817Z,10.00
2019-01-21T03:09:21.867Z,10.00
2019-01-21T03:10:21.902Z,9.40
2019-01-21T03:11:21.972Z,10.00
2019-01-21T03:12:22.002Z,9.70
2019-01-21T03:13:22.060Z,10.10
2019-01-21T03:14:22.106Z,9.50
2019-01-21T03:15:22.161Z,9.50
2019-01-21T03:16:22.213Z,9.30
2019-01-21T03:17:22.252Z,9.30
2019-01-21T03:18:22.307Z,9.50
2019-01-21T03:19:22.331Z,10.00
2019-01-21T03:20:22.439Z,9.40
2019-01-21T03:21:22.442Z,9.30
2019-01-21T03:22:22.501Z,10.20
2019-01-21T03:23:22.552Z,9.90
2019-01-21T03:24:22.575Z,10.30
2019-01-21T03:25:22.635Z,9.70
2019-01-21T03:26:22.867Z,9.20
2019-01-21T03:27:23.044Z,9.40
2019-01-21T03:28:22.776Z,9.60
2019-01-21T03:29:22.833Z,9.60
2019-01-21T03:30:22.867Z,10.70
2019-01-21T03:31:22.947Z,9.90
2019-01-21T03:32:23.139Z,9.30
2019-01-21T03:33:23.081Z,11.30
2019-01-21T03:34:23.113Z,10.20
2019-01-21T03:35:23.107Z,9.70
2019-01-21T03:36:23.173Z,9.90
2019-01-21T03:37:23.214Z,9.90
2019-01-21T03:38:23.260Z,9.90
2019-01-21T03:39:23.319Z,9.40
2019-01-21T03:40:23.349Z,10.00
2019-01-21T03:41:23.413Z,10.00
2019-01-21T03:42:23.490Z,10.90
2019-01-21T03:43:23.487Z,10.80
2019-01-21T03:44:23.644Z,11.30
2019-01-21T03:45:23.649Z,12.10
2019-01-21T03:46:23.667Z,11.20
2019-01-21T03:47:23.700Z,11.50
2019-01-21T03:48:23.743Z,11.10
2019-01-21T03:49:23.775Z,11.20
2019-01-21T03:50:23.852Z,11.30
2019-01-21T03:51:23.907Z,10.30
2019-01-21T03:52:23.939Z,10.40
2019-01-21T03:53:23.984Z,10.70
2019-01-21T03:54:24.042Z,10.60
2019-01-21T03:55:24.103Z,10.80
2019-01-21T03:56:24.142Z,10.60
2019-01-21T03:57:24.266Z,10.90
2019-01-21T03:58:24.227Z,11.80
2019-01-21T03:59:24.301Z,11.90
2019-01-21T04:00:24.337Z,12.50
2019-01-21T04:01:24.424Z,14.00
2019-01-21T04:02:24.405Z,13.40
2019-01-21T04:03:24.483Z,14.80
2019-01-21T04:04:24.505Z,14.30
2019-01-21T04:05:24.570Z,13.70
2019-01-21T04:06:24.611Z,13.50
2019-01-21T04:07:24.632Z,12.50
2019-01-21T04:08:24.694Z,13.20
2019-01-21T04:09:24.780Z,12.90
2019-01-21T04:10:24.798Z,12.70
2019-01-21T04:11:24.895Z,12.50
2019-01-21T04:12:24.891Z,12.60
2019-01-21T04:13:24.947Z,12.10
2019-01-21T04:14:24.985Z,13.60
2019-01-21T04:15:25.169Z,11.80
2019-01-21T04:16:25.121Z,11.30
2019-01-21T04:17:25.124Z,11.80
2019-01-21T04:18:25.199Z,11.50
2019-01-21T04:19:25.228Z,10.80
2019-01-21T04:20:25.460Z,9.90
2019-01-21T04:21:25.309Z,10.00
2019-01-21T04:22:25.350Z,9.90
2019-01-21T04:23:25.416Z,9.40
2019-01-21T04:24:25.466Z,9.20
2019-01-21T04:25:25.530Z,9.30
2019-01-21T04:26:25.581Z,9.40
2019-01-21T04:27:25.616Z,9.40
2019-01-21T04:28:25.656Z,9.90
2019-01-21T04:29:25.718Z,9.80
2019-01-21T04:30:25.761Z,9.50
2019-01-21T04:31:26.434Z,9.60
2019-01-21T04:32:25.856Z,9.60
2019-01-21T04:33:25.920Z,9.30
2019-01-21T04:34:25.950Z,9.60
2019-01-21T04:35:25.977Z,10.80
2019-01-21T04:36:26.039Z,9.30
2019-01-21T04:37:26.086Z,10.10
2019-01-21T04:38:26.122Z,10.30
2019-01-21T04:39:26.194Z,10.00
2019-01-21T04:40:26.224Z,9.80
2019-01-21T04:41:26.286Z,10.00
2019-01-21T04:42:26.317Z,10.00
2019-01-21T04:43:26.375Z,10.10
2019-01-21T04:44:26.430Z,9.90
2019-01-21T04:45:26.482Z,9.70
2019-01-21T04:46:26.508Z,10.00
2019-01-21T04:47:26.570Z,10.10
2019-01-21T04:48:32.929Z,10.90
2019-01-21T04:49:26.663Z,10.40
2019-01-21T04:50:26.680Z,10.30
2019-01-21T04:51:26.753Z,11.00
2019-01-21T04:52:26.788Z,10.10
2019-01-21T04:53:26.843Z,10.20
2019-01-21T04:54:26.898Z,10.10
2019-01-21T04:55:27.007Z,9.80
2019-01-21T04:56:27.009Z,10.30
2019-01-21T04:57:27.074Z,9.60
2019-01-21T04:58:27.081Z,10.20
2019-01-21T04:59:27.114Z,10.10
2019-01-21T05:00:27.190Z,8.80
2019-01-21T05:01:27.223Z,9.40
2019-01-21T05:02:27.282Z,9.40
2019-01-21T05:03:27.316Z,9.40
2019-01-21T05:04:27.369Z,9.40
2019-01-21T05:05:27.413Z,9.50
2019-01-21T05:06:27.461Z,9.90
2019-01-21T05:07:27.500Z,9.70
2019-01-21T05:08:27.572Z,9.50
2019-01-21T05:09:27.605Z,9.10
2019-01-21T05:10:27.764Z,9.70
2019-01-21T05:11:27.700Z,9.60
2019-01-21T05:12:27.771Z,9.70
2019-01-21T05:13:27.789Z,8.70
2019-01-21T05:14:27.856Z,9.10
2019-01-21T05:15:27.911Z,9.00
2019-01-21T05:16:27.924Z,9.10
2019-01-21T05:17:28.012Z,8.90
2019-01-21T05:18:28.051Z,9.00
2019-01-21T05:19:28.113Z,8.80
2019-01-21T05:20:28.147Z,9.00
2019-01-21T05:21:28.204Z,8.90
2019-01-21T05:22:28.237Z,8.40
2019-01-21T05:23:28.281Z,8.90
2019-01-21T05:24:28.351Z,9.10
2019-01-21T05:25:28.378Z,9.40
2019-01-21T05:26:28.412Z,9.00
2019-01-21T05:27:28.476Z,9.20
2019-01-21T05:28:28.521Z,9.20
2019-01-21T05:29:28.547Z,9.60
2019-01-21T05:30:29.694Z,10.00
2019-01-21T05:31:28.681Z,10.00
2019-01-21T05:32:28.703Z,10.30
2019-01-21T05:33:28.768Z,9.70
2019-01-21T05:34:28.811Z,9.60
2019-01-21T05:35:28.854Z,9.50
2019-01-21T05:36:28.912Z,10.20
2019-01-21T05:37:28.976Z,9.60
2019-01-21T05:38:28.995Z,9.60
2019-01-21T05:39:29.043Z,10.00
2019-01-21T05:40:29.104Z,9.40
2019-01-21T05:41:29.142Z,10.40
2019-01-21T05:42:29.200Z,9.20
2019-01-21T05:43:29.248Z,9.60
2019-01-21T05:44:29.261Z,9.80
2019-01-21T05:45:29.356Z,11.20
2019-01-21T05:46:29.379Z,9.60
2019-01-21T05:47:29.416Z,9.40
2019-01-21T05:48:29.469Z,9.80
2019-01-21T05:49:29.522Z,9.50
2019-01-21T05:50:29.608Z,9.60
2019-01-21T05:51:29.627Z,9.60
2019-01-21T05:52:29.659Z,9.70
2019-01-21T05:53:29.701Z,9.30
2019-01-21T05:54:29.765Z,10.20
2019-01-21T05:55:29.789Z,9.60
2019-01-21T05:56:29.873Z,9.60
2019-01-21T05:57:29.881Z,9.40
2019-01-21T05:58:29.975Z,9.40
2019-01-21T05:59:30.008Z,9.00
2019-01-21T06:00:30.069Z,8.70
2019-01-21T06:01:30.113Z,8.80
2019-01-21T06:02:30.188Z,9.20
2019-01-21T06:03:30.205Z,8.80
2019-01-21T06:04:30.258Z,8.60
2019-01-21T06:05:30.279Z,8.10
2019-01-21T06:06:30.334Z,8.60
2019-01-21T06:07:30.400Z,8.30
2019-01-21T06:08:30.440Z,7.80
2019-01-21T06:09:30.518Z,8.40
2019-01-21T06:10:30.573Z,8.40
2019-01-21T06:11:30.578Z,8.30
2019-01-21T06:12:30.619Z,8.20
2019-01-21T06:13:30.651Z,8.10
2019-01-21T06:14:30.723Z,8.10
2019-01-21T06:15:30.752Z,8.10
2019-01-21T06:16:30.808Z,7.90
2019-01-21T06:17:30.853Z,7.90
2019-01-21T06:18:30.907Z,8.10
2019-01-21T06:19:30.963Z,8.40
2019-01-21T06:20:31.008Z,7.80
2019-01-21T06:21:31.072Z,8.00
2019-01-21T06:22:31.121Z,7.80
2019-01-21T06:23:31.148Z,8.40
2019-01-21T06:24:31.185Z,8.50
2019-01-21T06:25:31.243Z,8.00
2019-01-21T06:26:31.302Z,8.20
2019-01-21T06:27:31.433Z,8.70
2019-01-21T06:28:31.391Z,8.60
2019-01-21T06:29:31.462Z,8.90
2019-01-21T06:30:31.511Z,8.70
2019-01-21T06:31:31.537Z,9.20
2019-01-21T06:32:31.599Z,9.10
2019-01-21T06:33:31.675Z,8.70
2019-01-21T06:34:31.712Z,9.20
2019-01-21T06:35:31.724Z,9.50
2019-01-21T06:36:31.775Z,9.60
2019-01-21T06:37:31.816Z,9.50
2019-01-21T06:38:32.021Z,8.90
2019-01-21T06:39:31.911Z,9.40
2019-01-21T06:40:31.961Z,9.50
2019-01-21T06:41:32.005Z,9.40
2019-01-21T06:42:32.053Z,10.00
2019-01-21T06:43:32.176Z,9.30
2019-01-21T06:44:32.150Z,9.40
2019-01-21T06:45:32.209Z,9.10
2019-01-21T06:46:32.252Z,9.20
2019-01-21T06:47:32.298Z,9.60
2019-01-21T06:48:32.355Z,10.20
2019-01-21T06:49:32.391Z,9.50
2019-01-21T06:50:32.438Z,9.70
2019-01-21T06:51:32.522Z,10.00
2019-01-21T06:52:32.526Z,9.80
2019-01-21T06:53:32.598Z,9.40
2019-01-21T06:54:32.677Z,10.00
2019-01-21T06:55:32.683Z,9.80
2019-01-21T06:56:32.724Z,10.40
2019-01-21T06:57:32.764Z,10.10
2019-01-21T06:58:32.811Z,9.60
2019-01-21T06:59:32.865Z,10.10
2019-01-21T07:00:33.120Z,10.10
2019-01-21T07:01:33.306Z,10.20
2019-01-21T07:02:33.010Z,10.70
2019-01-21T07:03:33.055Z,10.40
2019-01-21T07:04:33.101Z,10.20
2019-01-21T07:05:33.136Z,10.20
2019-01-21T07:06:33.211Z,10.40
2019-01-21T07:07:33.235Z,10.00
2019-01-21T07:08:33.294Z,10.10
2019-01-21T07:09:33.369Z,10.10
2019-01-21T07:10:33.369Z,10.40
2019-01-21T07:11:33.418Z,10.10
2019-01-21T07:12:33.580Z,10.30
2019-01-21T07:13:33.520Z,10.10
2019-01-21T07:14:33.583Z,10.90
2019-01-21T07:15:33.620Z,10.60
2019-01-21T07:16:33.652Z,10.80
2019-01-21T07:17:33.712Z,10.80
2019-01-21T07:18:33.769Z,10.30
2019-01-21T07:19:33.838Z,10.60
2019-01-21T07:20:33.846Z,11.80
2019-01-21T07:21:33.911Z,10.80
2019-01-21T07:22:33.953Z,10.60
2019-01-21T07:23:34.038Z,11.10
2019-01-21T07:24:34.042Z,11.10
2019-01-21T07:25:34.127Z,10.60
2019-01-21T07:26:34.155Z,11.50
2019-01-21T07:27:34.186Z,11.80
2019-01-21T07:28:34.246Z,12.30
2019-01-21T07:29:34.280Z,11.50
2019-01-21T07:30:34.338Z,11.80
2019-01-21T07:31:34.356Z,11.90
2019-01-21T07:32:34.435Z,11.80
2019-01-21T07:33:34.477Z,11.70
2019-01-21T07:34:34.505Z,12.00
2019-01-21T07:35:34.575Z,12.20
2019-01-21T07:36:34.613Z,12.30
2019-01-21T07:37:34.695Z,12.50
2019-01-21T07:38:34.701Z,12.10
2019-01-21T07:39:34.788Z,12.50
2019-01-21T07:40:34.786Z,12.10
2019-01-21T07:41:34.950Z,11.70
2019-01-21T07:42:34.921Z,12.80
2019-01-21T07:43:34.948Z,12.20
2019-01-21T07:44:35.009Z,12.70
2019-01-21T07:45:35.029Z,12.90
2019-01-21T07:46:35.113Z,12.60
2019-01-21T07:47:35.122Z,12.60
2019-01-21T07:48:35.188Z,12.50
2019-01-21T07:49:35.251Z,12.80
2019-01-21T07:50:35.290Z,12.30
2019-01-21T07:51:35.326Z,12.60
2019-01-21T07:52:35.485Z,13.20
2019-01-21T07:53:35.443Z,13.50
2019-01-21T07:54:35.466Z,13.80
2019-01-21T07:55:35.524Z,14.10
2019-01-21T07:56:35.581Z,13.60
2019-01-21T07:57:35.600Z,13.30
2019-01-21T07:58:35.646Z,14.50
2019-01-21T07:59:35.713Z,14.80
2019-01-21T08:00:35.760Z,14.60
2019-01-21T08:01:35.802Z,14.70
2019-01-21T08:02:35.857Z,14.70
2019-01-21T08:03:35.906Z,14.30
2019-01-21T08:04:35.946Z,14.40
2019-01-21T08:05:35.975Z,15.20
2019-01-21T08:06:36.033Z,15.30
2019-01-21T08:07:36.088Z,15.60
2019-01-21T08:08:36.158Z,16.40
2019-01-21T08:09:36.175Z,15.60
2019-01-21T08:10:36.226Z,16.10
2019-01-21T08:11:36.292Z,16.00
2019-01-21T08:12:36.321Z,16.10
2019-01-21T08:13:36.360Z,16.10
2019-01-21T08:14:36.420Z,16.10
2019-01-21T08:15:36.477Z,16.50
2019-01-21T08:16:36.495Z,16.10
2019-01-21T08:17:36.559Z,16.30
2019-01-21T08:18:36.606Z,16.50
2019-01-21T08:19:36.644Z,16.00
2019-01-21T08:20:36.795Z,15.40
2019-01-21T08:21:36.783Z,17.10
2019-01-21T08:22:36.782Z,16.10
2019-01-21T08:23:36.855Z,17.70
2019-01-21T08:24:36.877Z,17.00
2019-01-21T08:25:36.949Z,17.50
2019-01-21T08:26:36.984Z,17.70
2019-01-21T08:27:37.032Z,17.40
2019-01-21T08:28:37.087Z,17.70
2019-01-21T08:29:37.134Z,19.20
2019-01-21T08:30:37.166Z,17.70
2019-01-21T08:31:37.230Z,17.30
2019-01-21T08:32:37.279Z,16.90
2019-01-21T08:33:37.334Z,18.10
2019-01-21T08:34:37.360Z,18.40
2019-01-21T08:35:37.418Z,18.70
2019-01-21T08:36:37.460Z,19.20
2019-01-21T08:37:37.499Z,18.90
2019-01-21T08:38:37.582Z,19.00
2019-01-21T08:39:37.620Z,19.70
2019-01-21T08:40:37.661Z,18.70
2019-01-21T08:41:37.672Z,19.00
2019-01-21T08:42:37.742Z,19.20
2019-01-21T08:43:37.796Z,18.90
2019-01-21T08:44:37.844Z,18.50
2019-01-21T08:45:37.892Z,18.70
2019-01-21T08:46:37.924Z,18.30
2019-01-21T08:47:37.976Z,18.40
2019-01-21T08:48:38.024Z,17.90
2019-01-21T08:49:38.059Z,17.90
2019-01-21T08:50:38.207Z,17.70
2019-01-21T08:51:38.180Z,17.80
2019-01-21T08:52:38.226Z,17.40
2019-01-21T08:53:38.256Z,17.50
2019-01-21T08:54:38.343Z,16.80
2019-01-21T08:55:38.368Z,16.70
2019-01-21T08:56:38.414Z,16.50
2019-01-21T08:57:38.442Z,17.20
2019-01-21T08:58:38.484Z,17.00
2019-01-21T08:59:38.573Z,17.20
2019-01-21T09:00:38.582Z,17.20
2019-01-21T09:01:38.711Z,17.10
2019-01-21T09:02:38.683Z,17.60
2019-01-21T09:03:38.715Z,16.70
2019-01-21T09:04:38.771Z,17.20
2019-01-21T09:05:38.814Z,17.10
2019-01-21T09:06:38.906Z,16.40
2019-01-21T09:07:38.946Z,16.00
2019-01-21T09:08:38.965Z,16.30
2019-01-21T09:09:39.032Z,16.40
2019-01-21T09:10:39.059Z,16.20
2019-01-21T09:11:39.102Z,16.50
2019-01-21T09:12:39.157Z,16.00
2019-01-21T09:13:39.185Z,16.40
2019-01-21T09:14:39.254Z,15.90
2019-01-21T09:15:39.282Z,16.10
2019-01-21T09:16:39.333Z,15.80
2019-01-21T09:17:39.440Z,16.00
2019-01-21T09:18:39.555Z,15.10
2019-01-21T09:19:39.505Z,16.10
2019-01-21T09:20:39.544Z,16.00
2019-01-21T09:21:39.589Z,15.70
2019-01-21T09:22:39.607Z,16.00
2019-01-21T09:23:39.681Z,15.60
2019-01-21T09:24:39.713Z,15.40
2019-01-21T09:25:39.777Z,15.20
2019-01-21T09:26:39.795Z,15.20
2019-01-21T09:27:39.883Z,14.80
2019-01-21T09:28:39.900Z,14.20
2019-01-21T09:29:39.971Z,14.60
2019-01-21T09:30:40.013Z,14.30
2019-01-21T09:31:40.075Z,15.00
2019-01-21T09:32:40.102Z,13.80
2019-01-21T09:33:40.157Z,10.30
2019-01-21T09:34:40.236Z,11.10
2019-01-21T09:35:40.274Z,10.70
2019-01-21T09:36:40.294Z,9.70
2019-01-21T09:37:40.345Z,9.90
2019-01-21T09:38:40.403Z,10.40
2019-01-21T09:39:40.431Z,9.90
2019-01-21T09:40:40.507Z,9.90
2019-01-21T09:41:40.559Z,10.40
2019-01-21T09:42:40.606Z,10.20
2019-01-21T09:43:40.644Z,9.70
2019-01-21T09:44:40.710Z,9.60
2019-01-21T09:45:40.730Z,9.70
2019-01-21T09:46:40.784Z,9.30
2019-01-21T09:47:40.842Z,10.10
2019-01-21T09:48:40.871Z,9.90
2019-01-21T09:49:43.798Z,9.40
2019-01-21T09:50:40.999Z,9.30
2019-01-21T09:51:41.029Z,9.40
2019-01-21T09:52:41.064Z,9.40
2019-01-21T09:53:41.116Z,9.00
2019-01-21T09:54:41.156Z,9.60
2019-01-21T09:55:41.228Z,8.70
2019-01-21T09:56:41.286Z,8.90
2019-01-21T09:57:41.318Z,8.60
2019-01-21T09:58:41.391Z,8.90
2019-01-21T09:59:41.443Z,8.20
2019-01-21T10:00:41.447Z,8.30
2019-01-21T10:01:41.518Z,7.70
2019-01-21T10:02:42.268Z,7.90
2019-01-21T10:03:41.613Z,7.30
2019-01-21T10:04:41.665Z,7.20
2019-01-21T10:05:41.727Z,7.40
2019-01-21T10:06:41.775Z,7.20
2019-01-21T10:07:41.827Z,7.00
2019-01-21T10:08:41.875Z,6.10
2019-01-21T10:09:41.924Z,6.40
2019-01-21T10:10:41.982Z,5.80
2019-01-21T10:11:42.017Z,6.00
2019-01-21T10:12:42.064Z,6.20
2019-01-21T10:13:42.150Z,6.10
2019-01-21T10:14:42.231Z,6.20
2019-01-21T10:15:42.233Z,6.00
2019-01-21T10:16:42.366Z,5.80
2019-01-21T10:17:42.354Z,6.30
2019-01-21T10:18:42.386Z,6.10
2019-01-21T10:19:42.444Z,6.60
2019-01-21T10:20:42.493Z,8.40
2019-01-21T10:21:42.549Z,5.90
2019-01-21T10:22:42.584Z,5.70
2019-01-21T10:23:42.652Z,6.00
2019-01-21T10:24:42.719Z,6.10
2019-01-21T10:25:42.769Z,6.20
2019-01-21T10:26:42.811Z,5.80
2019-01-21T10:27:42.847Z,5.90
2019-01-21T10:28:42.972Z,5.40
2019-01-21T10:29:42.974Z,11.10
2019-01-21T10:30:43.025Z,5.10
2019-01-21T10:31:43.086Z,6.10
2019-01-21T10:32:43.143Z,4.90
2019-01-21T10:33:43.484Z,5.50
2019-01-21T10:34:43.236Z,5.30
2019-01-21T10:35:43.299Z,5.20
2019-01-21T10:36:43.375Z,5.40
2019-01-21T10:37:43.396Z,5.00
2019-01-21T10:38:43.452Z,5.50
2019-01-21T10:39:43.524Z,5.20
2019-01-21T10:40:43.552Z,5.20
2019-01-21T10:41:43.639Z,5.30
2019-01-21T10:42:43.666Z,6.40
2019-01-21T10:43:43.754Z,4.90
2019-01-21T10:44:43.778Z,5.40
2019-01-21T10:45:43.840Z,4.90
2019-01-21T10:46:43.908Z,5.20
2019-01-21T10:47:43.976Z,5.80
2019-01-21T10:48:44.027Z,6.00
2019-01-21T10:49:44.076Z,6.70
2019-01-21T10:50:44.139Z,6.50
2019-01-21T10:51:44.193Z,5.20
2019-01-21T10:52:44.254Z,4.70
2019-01-21T10:53:44.318Z,5.40
2019-01-21T10:54:44.410Z,5.90
2019-01-21T10:55:44.419Z,5.30
2019-01-21T10:56:44.467Z,5.20
2019-01-21T10:57:44.539Z,5.60
2019-01-21T10:58:44.575Z,6.70
2019-01-21T10:59:44.644Z,7.00
2019-01-21T11:00:44.715Z,6.60
2019-01-21T11:01:44.776Z,8.50
2019-01-21T11:02:44.796Z,7.10
2019-01-21T11:03:44.916Z,7.60
2019-01-21T11:04:44.927Z,9.60
2019-01-21T11:05:45.027Z,8.70
2019-01-21T11:06:45.068Z,9.70
2019-01-21T11:07:45.099Z,8.20
2019-01-21T11:08:45.167Z,7.50
2019-01-21T11:09:45.210Z,8.10
2019-01-21T11:10:45.286Z,8.80
2019-01-21T11:11:45.350Z,6.40
2019-01-21T11:12:45.385Z,6.40
2019-01-21T11:13:45.466Z,6.40
2019-01-21T11:14:45.520Z,6.80
2019-01-21T11:15:45.586Z,10.00
2019-01-21T11:16:45.612Z,7.30
2019-01-21T11:17:45.728Z,6.10
2019-01-21T11:18:45.858Z,5.60
2019-01-21T11:19:45.825Z,6.40
2019-01-21T11:20:45.891Z,6.20
2019-01-21T11:21:45.921Z,5.80
2019-01-21T11:22:45.981Z,8.90
2019-01-21T11:23:46.071Z,6.70
2019-01-21T11:24:46.208Z,6.50
2019-01-21T11:25:46.173Z,7.90
2019-01-21T11:26:46.230Z,6.60
2019-01-21T11:27:46.289Z,6.60
2019-01-21T11:28:46.338Z,6.20
2019-01-21T11:29:46.416Z,7.80
2019-01-21T11:30:46.478Z,7.70
2019-01-21T11:31:46.544Z,5.90
2019-01-21T11:32:46.625Z,6.70
2019-01-21T11:33:46.667Z,7.40
2019-01-21T11:34:46.697Z,6.10
2019-01-21T11:35:46.784Z,7.20
2019-01-21T11:36:46.834Z,6.20
2019-01-21T11:37:46.894Z,6.60
2019-01-21T11:38:46.953Z,6.10
2019-01-21T11:39:47.019Z,6.60
2019-01-21T11:40:47.055Z,6.30
2019-01-21T11:41:47.140Z,6.10
2019-01-21T11:42:47.207Z,6.30
2019-01-21T11:43:47.261Z,6.40
2019-01-21T11:44:47.327Z,5.60
2019-01-21T11:45:47.363Z,5.50
2019-01-21T11:46:47.452Z,6.90
2019-01-21T11:47:47.499Z,5.60
2019-01-21T11:48:47.575Z,5.60
2019-01-21T11:49:47.636Z,6.30
2019-01-21T11:50:47.705Z,5.30
2019-01-21T11:51:47.751Z,5.40
2019-01-21T11:52:47.854Z,5.30
2019-01-21T11:53:47.861Z,6.70
2019-01-21T11:54:47.978Z,5.70
2019-01-21T11:55:48.006Z,5.50
2019-01-21T11:56:48.095Z,7.20
2019-01-21T11:57:48.170Z,8.00
2019-01-21T11:58:48.187Z,4.80
2019-01-21T11:59:48.256Z,5.80
2019-01-21T12:00:48.325Z,7.00
2019-01-21T12:01:48.359Z,4.80
2019-01-21T12:02:48.573Z,5.60
2019-01-21T12:03:48.467Z,6.00
2019-01-21T12:04:48.586Z,7.00
2019-01-21T12:05:48.594Z,4.80
2019-01-21T12:06:48.675Z,5.00
2019-01-21T12:07:48.746Z,3.70
2019-01-21T12:08:48.811Z,3.20
2019-01-21T12:09:48.873Z,5.80
2019-01-21T12:10:48.927Z,5.10
2019-01-21T12:11:48.965Z,5.00
2019-01-21T12:12:49.038Z,3.40
2019-01-21T12:13:49.117Z,4.10
2019-01-21T12:14:49.163Z,4.20
2019-01-21T12:15:49.242Z,3.50
2019-01-21T12:16:49.313Z,5.90
2019-01-21T12:17:49.373Z,4.90
2019-01-21T12:18:49.431Z,4.40
2019-01-21T12:19:49.493Z,2.50
2019-01-21T12:20:49.550Z,4.30
2019-01-21T12:21:49.605Z,3.40
2019-01-21T12:22:49.676Z,3.70
2019-01-21T12:23:49.753Z,4.10
2019-01-21T12:24:49.786Z,3.60
2019-01-21T12:25:49.875Z,3.30
2019-01-21T12:26:49.914Z,3.20
2019-01-21T12:27:49.992Z,2.30
2019-01-21T12:28:50.053Z,3.30
2019-01-21T12:29:50.123Z,4.40
2019-01-21T12:30:50.184Z,3.40
2019-01-21T12:31:50.233Z,3.60
2019-01-21T12:32:50.325Z,5.70
2019-01-21T12:33:50.352Z,3.70
2019-01-21T12:34:50.443Z,3.40
2019-01-21T12:35:50.484Z,2.70
2019-01-21T12:36:50.565Z,3.00
2019-01-21T12:37:50.606Z,2.70
2019-01-21T12:38:50.717Z,2.80
2019-01-21T12:39:50.742Z,3.90
2019-01-21T12:40:50.815Z,2.60
2019-01-21T12:41:50.907Z,2.80
2019-01-21T12:42:50.923Z,6.20
2019-01-21T12:43:50.982Z,4.10
2019-01-21T12:44:51.044Z,3.90
2019-01-21T12:45:51.119Z,5.60
2019-01-21T12:46:51.174Z,3.80
2019-01-21T12:47:51.261Z,2.40
2019-01-21T12:48:51.311Z,3.30
2019-01-21T12:49:51.371Z,2.90
2019-01-21T12:50:51.416Z,4.90
2019-01-21T12:51:51.504Z,2.40
2019-01-21T12:52:51.596Z,3.20
2019-01-21T12:53:51.620Z,3.20
2019-01-21T12:54:51.681Z,2.70
2019-01-21T12:55:51.782Z,2.90
2019-01-21T12:56:51.800Z,3.60
2019-01-21T12:57:51.887Z,3.30
2019-01-21T12:58:51.971Z,4.90
2019-01-21T12:59:52.013Z,5.00
2019-01-21T13:00:55.917Z,4.30
2019-01-21T13:01:52.170Z,4.60
2019-01-21T13:02:52.209Z,4.20
2019-01-21T13:03:52.280Z,4.30
2019-01-21T13:04:52.328Z,4.50
2019-01-21T13:05:52.992Z,4.70